Time;durP1;ratioP1;P1;durP2;ratioP2;P2;SDS_P1;SDS_P2;PMS_P1;PMS_P2;Temp;Humidity;BMP_temperature;BMP_pressure;BME280_temperature;BME280_humidity;BME280_pressure;Samples;Min_cycle;Max_cycle;Signal;HPM_P1;HPM_P2
2022/09/19 00:00:25;;;;;;;0.20;0.20;;;;;;;7.77;100.00;101712.53;5078972;28;20071;-69
2022/09/19 00:02:50;;;;;;;0.10;0.10;;;;;;;7.77;100.00;101696.50;5073536;28;20028;-69
2022/09/19 00:05:16;;;;;;;0.10;0.10;;;;;;;7.84;100.00;101706.84;5076588;28;20028;-69
2022/09/19 00:07:43;;;;;;;0.10;0.10;;;;;;;7.84;100.00;101690.81;5079552;28;20054;-69
2022/09/19 00:10:08;;;;;;;0.20;0.20;;;;;;;7.85;100.00;101704.13;5076146;28;20032;-69
2022/09/19 00:12:33;;;;;;;0.10;0.10;;;;;;;7.78;100.00;101692.88;5069430;28;20394;-69
2022/09/19 00:14:59;;;;;;;0.10;0.10;;;;;;;7.91;100.00;101701.13;5074882;28;20020;-69
2022/09/19 00:17:24;;;;;;;0.08;0.08;;;;;;;7.90;100.00;101701.19;5074769;28;20130;-69
2022/09/19 00:19:51;;;;;;;0.15;0.15;;;;;;;7.94;100.00;101694.72;5071417;28;20123;-69
2022/09/19 00:22:16;;;;;;;0.20;0.20;;;;;;;7.97;100.00;101699.94;5068325;28;20267;-69
2022/09/19 00:24:49;;;;;;;0.10;0.10;;;;;;;8.03;100.00;101706.75;5070790;28;20032;-69
2022/09/19 00:27:22;;;;;;;0.10;0.10;;;;;;;8.09;100.00;101709.09;5068210;28;20103;-69
2022/09/19 00:29:48;;;;;;;0.10;0.10;;;;;;;8.07;100.00;101700.28;5068633;28;20063;-69
2022/09/19 00:32:15;;;;;;;0.10;0.10;;;;;;;8.09;100.00;101703.75;5068295;28;20036;-69
2022/09/19 00:34:42;;;;;;;0.10;0.10;;;;;;;8.09;100.00;101712.63;5070078;28;20035;-69
2022/09/19 00:37:07;;;;;;;0.10;0.10;;;;;;;8.00;100.00;101710.47;5071455;28;20024;-69
2022/09/19 00:39:33;;;;;;;0.10;0.10;;;;;;;7.87;100.00;101690.66;5079049;28;20028;-69
2022/09/19 00:41:58;;;;;;;0.10;0.10;;;;;;;8.00;100.00;101707.78;5072455;28;20046;-69
2022/09/19 00:44:24;;;;;;;0.10;0.10;;;;;;;7.92;100.00;101708.19;5074669;28;20020;-69
2022/09/19 00:46:54;;;;;;;0.10;0.10;;;;;;;7.89;100.00;101712.81;5073912;28;20032;-70
2022/09/19 00:49:21;;;;;;;0.10;0.10;;;;;;;7.90;100.00;101712.75;5068966;28;20374;-69
2022/09/19 00:51:49;;;;;;;0.20;0.20;;;;;;;7.84;100.00;101714.88;5074336;28;20036;-70
2022/09/19 00:54:36;;;;;;;0.10;0.10;;;;;;;7.76;100.00;101720.63;5072813;28;20126;-70
2022/09/19 00:57:03;;;;;;;0.10;0.10;;;;;;;7.87;100.00;101717.38;5057714;28;20038;-70
2022/09/19 00:59:33;;;;;;;0.10;0.10;;;;;;;7.90;100.00;101719.91;5071001;28;20063;-70
2022/09/19 01:02:02;;;;;;;0.13;0.13;;;;;;;7.88;100.00;101717.31;5068763;28;20031;-69
2022/09/19 01:04:30;;;;;;;0.10;0.10;;;;;;;7.86;100.00;101721.00;5067362;28;20051;-70
2022/09/19 01:07:01;;;;;;;0.10;0.10;;;;;;;7.83;100.00;101719.38;5067130;28;20032;-69
2022/09/19 01:09:48;;;;;;;0.10;0.10;;;;;;;7.80;100.00;101722.19;5072438;28;20036;-69
2022/09/19 01:12:23;;;;;;;0.20;0.20;;;;;;;7.67;100.00;101705.94;5071668;28;20020;-69
2022/09/19 01:14:56;;;;;;;0.10;0.10;;;;;;;7.78;100.00;101710.72;5070424;28;20030;-69
2022/09/19 01:17:31;;;;;;;0.10;0.10;;;;;;;7.77;100.00;101714.34;5069437;28;20117;-69
2022/09/19 01:19:59;;;;;;;0.20;0.20;;;;;;;7.85;100.00;101732.66;5069825;28;20059;-69
2022/09/19 01:22:30;;;;;;;0.10;0.10;;;;;;;7.76;100.00;101729.53;5072008;28;20030;-69
2022/09/19 01:25:14;;;;;;;0.10;0.10;;;;;;;7.68;100.00;101734.38;5069174;28;20398;-69
2022/09/19 01:28:14;;;;;;;0.20;0.20;;;;;;;7.67;100.00;101738.00;5071673;28;20047;-69
2022/09/19 01:30:47;;;;;;;0.45;0.10;;;;;;;7.69;100.00;101743.25;5072006;28;20036;-69
2022/09/19 01:33:20;;;;;;;0.10;0.10;;;;;;;7.74;100.00;101738.56;5074006;28;20032;-69
2022/09/19 01:35:50;;;;;;;0.10;0.10;;;;;;;7.75;100.00;101735.81;5072152;28;20039;-69
2022/09/19 01:38:21;;;;;;;0.13;0.13;;;;;;;7.75;100.00;101727.78;5069446;28;20050;-69
2022/09/19 01:40:47;;;;;;;0.10;0.10;;;;;;;7.77;100.00;101738.41;5070700;28;20033;-69
2022/09/19 01:43:14;;;;;;;0.10;0.10;;;;;;;7.79;100.00;101744.53;5065356;28;20044;-69
2022/09/19 01:45:40;;;;;;;0.10;0.10;;;;;;;7.71;100.00;101736.91;5069559;28;20425;-69
2022/09/19 01:48:14;;;;;;;0.10;0.10;;;;;;;7.75;100.00;101753.66;5066290;28;20497;-69
2022/09/19 01:50:45;;;;;;;;;;;;;;;7.74;100.00;101755.47;5067685;28;20473;-69
2022/09/19 01:53:46;;;;;;;0.17;0.17;;;;;;;7.76;100.00;101756.25;5074132;28;20247;-69
2022/09/19 01:56:56;;;;;;;0.10;0.10;;;;;;;7.78;100.00;101757.03;5072744;28;20117;-69
2022/09/19 01:59:41;;;;;;;0.10;0.10;;;;;;;7.77;100.00;101749.09;5080587;28;20036;-69
2022/09/19 02:02:17;;;;;;;0.10;0.10;;;;;;;7.83;100.00;101753.25;5078317;28;20035;-69
2022/09/19 02:04:50;;;;;;;0.10;0.10;;;;;;;7.88;100.00;101749.41;5065866;28;20063;-68
2022/09/19 02:07:27;;;;;;;0.10;0.10;;;;;;;7.78;100.00;101727.63;5071478;28;20247;-69
2022/09/19 02:10:02;;;;;;;0.10;0.10;;;;;;;8.05;100.00;101758.34;5071083;28;20106;-69
2022/09/19 02:12:31;;;;;;;0.10;0.10;;;;;;;8.13;100.00;101755.25;5081213;28;20043;-69
2022/09/19 02:15:00;;;;;;;0.20;0.20;;;;;;;8.16;100.00;101757.78;5069217;28;20036;-69
2022/09/19 02:17:34;;;;;;;0.10;0.10;;;;;;;8.18;100.00;101758.56;5076450;28;20031;-69
2022/09/19 02:20:07;;;;;;;0.10;0.10;;;;;;;8.15;100.00;101761.41;5075527;28;20153;-68
2022/09/19 02:22:43;;;;;;;0.20;0.20;;;;;;;8.17;100.00;101762.19;5073915;28;20028;-68
2022/09/19 02:25:12;;;;;;;0.10;0.10;;;;;;;8.08;100.00;101759.03;5069798;28;20086;-69
2022/09/19 02:27:49;;;;;;;0.10;0.10;;;;;;;8.05;100.00;101766.38;5074172;28;20052;-69
2022/09/19 02:30:16;;;;;;;0.20;0.20;;;;;;;7.93;100.00;101765.22;5070883;28;20028;-69
2022/09/19 02:32:46;;;;;;;0.05;0.05;;;;;;;7.75;100.00;101742.94;5069117;28;20111;-69
2022/09/19 02:35:13;;;;;;;0.10;0.10;;;;;;;7.95;100.00;101761.50;5074174;28;20481;-69
2022/09/19 02:37:46;;;;;;;0.10;0.10;;;;;;;7.83;100.00;101763.94;5074272;28;20112;-69
2022/09/19 02:40:20;;;;;;;0.10;0.10;;;;;;;7.87;100.00;101761.06;5072595;28;20497;-69
2022/09/19 02:42:56;;;;;;;0.10;0.10;;;;;;;7.80;100.00;101733.78;5074470;28;20115;-69
2022/09/19 02:45:32;;;;;;;0.20;0.15;;;;;;;7.94;100.00;101759.78;5072724;28;20470;-68
2022/09/19 02:48:11;;;;;;;0.15;0.15;;;;;;;8.00;100.00;101771.97;5070921;28;20031;-69
2022/09/19 02:50:43;;;;;;;0.10;0.10;;;;;;;8.03;100.00;101766.47;5070307;22;20048;-69
2022/09/19 02:53:12;;;;;;;0.10;0.10;;;;;;;8.06;100.00;101773.47;5040680;28;20114;-69
2022/09/19 02:55:45;;;;;;;0.10;0.10;;;;;;;8.04;100.00;101756.63;5040629;28;20052;-69
2022/09/19 02:58:14;;;;;;;0.10;0.10;;;;;;;8.07;100.00;101768.03;5038458;28;20100;-69
2022/09/19 03:00:40;;;;;;;0.10;0.10;;;;;;;8.09;100.00;101763.44;5042936;28;20411;-69
2022/09/19 03:05:57;;;;;;;0.10;0.10;;;;;;;8.03;100.00;101729.03;5021125;28;20537;-69
2022/09/19 03:08:24;;;;;;;0.20;0.20;;;;;;;8.24;100.00;101775.16;5046078;28;20044;-69
2022/09/19 03:10:51;;;;;;;0.10;0.10;;;;;;;8.25;100.00;101779.56;5049616;28;20021;-69
2022/09/19 03:13:24;;;;;;;0.10;0.10;;;;;;;8.26;100.00;101772.41;5041825;28;20379;-69
2022/09/19 03:15:58;;;;;;;0.10;0.10;;;;;;;8.21;100.00;101771.78;5044033;28;20024;-69
2022/09/19 03:18:25;;;;;;;0.20;0.20;;;;;;;8.31;100.00;101765.00;5040422;28;20108;-69
2022/09/19 03:20:59;;;;;;;0.10;0.10;;;;;;;8.38;100.00;101771.75;5037560;28;20039;-69
2022/09/19 03:23:30;;;;;;;0.10;0.10;;;;;;;8.39;100.00;101775.28;5043785;28;20075;-69
2022/09/19 03:25:55;;;;;;;0.20;0.20;;;;;;;8.44;100.00;101778.59;5041847;28;20033;-69
2022/09/19 03:28:21;;;;;;;0.10;0.10;;;;;;;8.43;100.00;101784.00;5041995;28;20036;-69
2022/09/19 03:30:47;;;;;;;0.10;0.10;;;;;;;8.53;100.00;101799.53;5043036;28;20029;-68
2022/09/19 03:33:15;;;;;;;0.10;0.10;;;;;;;8.55;100.00;101794.09;5038643;28;20368;-69
2022/09/19 03:35:41;;;;;;;0.10;0.10;;;;;;;8.51;100.00;101787.19;5029165;28;20385;-69
2022/09/19 03:38:07;;;;;;;0.10;0.10;;;;;;;8.53;100.00;101788.81;5044290;28;20478;-69
2022/09/19 03:40:33;;;;;;;0.10;0.10;;;;;;;8.52;100.00;101780.88;5037732;28;20025;-69
2022/09/19 03:42:59;;;;;;;0.20;0.20;;;;;;;8.44;100.00;101764.34;5038895;28;20032;-69
2022/09/19 03:45:24;;;;;;;0.10;0.10;;;;;;;8.55;100.00;101786.94;5045425;28;20070;-69
2022/09/19 03:47:50;;;;;;;0.10;0.10;;;;;;;8.62;100.00;101790.13;5043092;28;20112;-69
2022/09/19 03:50:15;;;;;;;0.10;0.10;;;;;;;8.67;100.00;101793.41;5042605;28;20036;-69
2022/09/19 03:52:41;;;;;;;0.10;0.10;;;;;;;8.72;100.00;101792.31;5046960;28;20037;-69
2022/09/19 03:55:06;;;;;;;0.20;0.20;;;;;;;8.78;100.00;101791.97;5041973;28;20136;-69
2022/09/19 03:57:32;;;;;;;0.10;0.10;;;;;;;8.75;100.00;101790.31;5036752;28;20438;-69
2022/09/19 03:59:57;;;;;;;0.10;0.10;;;;;;;8.77;100.00;101795.59;5037049;28;20394;-69
2022/09/19 04:02:22;;;;;;;0.20;0.20;;;;;;;8.77;100.00;101796.44;5034803;28;20068;-69
2022/09/19 04:04:48;;;;;;;0.10;0.10;;;;;;;8.76;100.00;101788.53;5029958;28;20123;-69
2022/09/19 04:07:15;;;;;;;0.10;0.10;;;;;;;8.72;100.00;101795.00;5017073;28;20375;-69
2022/09/19 04:09:40;;;;;;;0.10;0.10;;;;;;;8.65;100.00;101794.47;5014246;28;20439;-69
2022/09/19 04:12:05;;;;;;;0.10;0.10;;;;;;;8.65;100.00;101798.00;5018967;28;20028;-69
2022/09/19 04:14:31;;;;;;;0.10;0.10;;;;;;;8.61;100.00;101799.09;5016578;28;20025;-69
2022/09/19 04:16:57;;;;;;;0.10;0.10;;;;;;;8.56;100.00;101798.50;5020044;28;20520;-69
2022/09/19 04:19:26;;;;;;;0.20;0.20;;;;;;;8.57;100.00;101797.56;5023461;28;20025;-69
2022/09/19 04:21:52;;;;;;;0.10;0.10;;;;;;;8.47;100.00;101798.97;5022883;28;20045;-69
2022/09/19 04:24:18;;;;;;;0.10;0.10;;;;;;;8.43;100.00;101800.06;5021295;28;20029;-69
2022/09/19 04:26:43;;;;;;;0.10;0.10;;;;;;;8.13;100.00;101763.28;5021683;28;20029;-69
2022/09/19 04:29:09;;;;;;;0.10;0.10;;;;;;;8.19;100.00;101789.72;5024238;28;20037;-68
2022/09/19 04:31:40;;;;;;;0.10;0.10;;;;;;;8.01;100.00;101779.06;5022323;28;20181;-68
2022/09/19 04:34:07;;;;;;;0.10;0.10;;;;;;;8.06;100.00;101809.09;5022379;28;20029;-69
2022/09/19 04:36:33;;;;;;;0.10;0.10;;;;;;;8.06;100.00;101808.22;5027657;28;20437;-69
2022/09/19 04:39:02;;;;;;;0.20;0.20;;;;;;;8.06;100.00;101809.09;5022537;28;20029;-69
2022/09/19 04:41:33;;;;;;;0.10;0.10;;;;;;;7.88;100.00;101785.97;5030187;28;20025;-68
2022/09/19 04:44:00;;;;;;;0.10;0.10;;;;;;;8.05;100.00;101822.53;5024535;28;20104;-70
2022/09/19 04:46:25;;;;;;;0.10;0.10;;;;;;;8.04;100.00;101827.03;5027423;28;20025;-68
2022/09/19 04:48:52;;;;;;;0.10;0.10;;;;;;;8.20;100.00;101823.56;5024926;28;20047;-71
2022/09/19 04:51:18;;;;;;;0.13;0.13;;;;;;;8.27;100.00;101824.97;5027621;28;20056;-72
2022/09/19 04:53:43;;;;;;;0.20;0.20;;;;;;;8.37;100.00;101822.69;5008434;28;20056;-70
2022/09/19 04:56:10;;;;;;;0.10;0.10;;;;;;;8.24;100.00;101803.72;5023833;28;20025;-70
2022/09/19 04:58:37;;;;;;;0.20;0.20;;;;;;;8.36;100.00;101831.66;5026495;28;20037;-74
2022/09/19 05:01:03;;;;;;;0.10;0.10;;;;;;;8.20;100.00;101805.72;5007617;28;20431;-74
2022/09/19 05:03:30;;;;;;;0.10;0.10;;;;;;;8.37;100.00;101820.84;5029797;28;20044;-74
2022/09/19 05:05:56;;;;;;;0.10;0.10;;;;;;;8.46;100.00;101835.59;5010623;28;20192;-74
2022/09/19 05:08:25;;;;;;;0.20;0.20;;;;;;;8.49;100.00;101840.78;5032475;28;20111;-74
2022/09/19 05:10:53;;;;;;;0.10;0.10;;;;;;;8.49;100.00;101838.09;5017338;28;20466;-74
2022/09/19 05:13:18;;;;;;;0.10;0.10;;;;;;;8.41;100.00;101835.81;5023647;28;20589;-74
2022/09/19 05:15:44;;;;;;;0.10;0.10;;;;;;;8.49;100.00;101834.56;5029747;28;20041;-74
2022/09/19 05:18:10;;;;;;;0.10;0.10;;;;;;;8.58;100.00;101839.44;5026327;28;20033;-74
2022/09/19 05:20:36;;;;;;;0.10;0.10;;;;;;;8.55;100.00;101837.78;5038693;28;20040;-74
2022/09/19 05:23:01;;;;;;;0.10;0.10;;;;;;;8.51;100.00;101830.00;5038743;28;20033;-74
2022/09/19 05:25:28;;;;;;;0.10;0.10;;;;;;;8.60;100.00;101847.38;5019860;28;20029;-74
2022/09/19 05:27:55;;;;;;;0.10;0.10;;;;;;;8.53;100.00;101826.28;4999989;28;20060;-74
2022/09/19 05:30:26;;;;;;;0.10;0.10;;;;;;;8.66;100.00;101839.03;5028516;28;20573;-74
2022/09/19 05:32:51;;;;;;;0.10;0.10;;;;;;;8.64;100.00;101849.81;5027479;28;20242;-74
2022/09/19 05:35:17;;;;;;;0.17;0.17;;;;;;;8.69;100.00;101855.78;5026830;28;20410;-74
2022/09/19 05:37:44;;;;;;;0.10;0.10;;;;;;;8.69;100.00;101852.25;5035046;28;20467;-74
2022/09/19 05:40:13;;;;;;;0.10;0.10;;;;;;;8.66;100.00;101855.94;5031584;28;20036;-74
2022/09/19 05:42:40;;;;;;;0.10;0.10;;;;;;;8.63;100.00;101850.75;5027139;28;20101;-74
2022/09/19 05:45:06;;;;;;;0.10;0.10;;;;;;;8.62;100.00;101846.34;5025139;28;21016;-74
2022/09/19 05:47:31;;;;;;;0.20;0.20;;;;;;;8.75;100.00;101865.28;5001514;28;20041;-74
2022/09/19 05:49:57;;;;;;;0.10;0.10;;;;;;;8.72;100.00;101862.81;5024051;28;20056;-74
2022/09/19 05:55:07;;;;;;;0.20;0.20;;;;;;;8.73;100.00;101863.66;5022125;28;20383;-74
2022/09/19 05:57:33;;;;;;;0.10;0.10;;;;;;;8.92;100.00;101874.25;5022588;28;20136;-75
2022/09/19 05:59:59;;;;;;;0.10;0.10;;;;;;;8.72;100.00;101841.38;5024904;28;20030;-74
2022/09/19 06:02:24;;;;;;;0.10;0.10;;;;;;;8.90;100.00;101865.44;5020261;28;20107;-74
2022/09/19 06:04:50;;;;;;;0.17;0.17;;;;;;;9.09;100.00;101876.00;5024380;28;20026;-74
2022/09/19 06:07:15;;;;;;;0.10;0.10;;;;;;;9.18;100.00;101869.28;5011473;28;20075;-74
2022/09/19 06:09:42;;;;;;;0.10;0.10;;;;;;;9.34;100.00;101888.91;5026720;28;20403;-74
2022/09/19 06:12:07;;;;;;;0.10;0.10;;;;;;;9.24;100.00;101867.09;5006977;28;20021;-74
2022/09/19 06:14:38;;;;;;;0.10;0.10;;;;;;;9.39;100.00;101892.19;5008003;28;20223;-74
2022/09/19 06:17:03;;;;;;;0.10;0.10;;;;;;;9.35;100.00;101881.72;5012174;28;20112;-74
2022/09/19 06:19:29;;;;;;;0.20;0.20;;;;;;;9.27;100.00;101869.63;5026823;28;20033;-74
2022/09/19 06:21:56;;;;;;;0.10;0.10;;;;;;;9.34;100.00;101886.22;5002919;28;20029;-74
2022/09/19 06:24:22;;;;;;;0.20;0.20;;;;;;;9.26;100.00;101875.06;5001438;28;20026;-74
2022/09/19 06:26:47;;;;;;;0.17;0.17;;;;;;;9.28;100.00;101874.03;5019855;28;20044;-74
2022/09/19 06:29:12;;;;;;;0.10;0.10;;;;;;;9.30;100.00;101879.28;5020583;28;20057;-74
2022/09/19 06:31:38;;;;;;;0.20;0.20;;;;;;;9.38;100.00;101889.59;5022791;28;20441;-74
2022/09/19 06:34:03;;;;;;;0.10;0.10;;;;;;;9.45;100.00;101894.53;5023072;28;20029;-74
2022/09/19 06:36:28;;;;;;;0.10;0.10;;;;;;;9.39;100.00;101877.94;5023489;28;20029;-74
2022/09/19 06:38:54;;;;;;;0.15;0.15;;;;;;;9.59;100.00;101909.84;5023455;28;20064;-73
2022/09/19 06:41:19;;;;;;;0.13;0.13;;;;;;;9.51;100.00;101871.88;5024843;28;20533;-74
2022/09/19 06:43:45;;;;;;;0.20;0.20;;;;;;;9.69;100.00;101904.81;5017154;28;20617;-74
2022/09/19 06:46:10;;;;;;;0.10;0.10;;;;;;;9.84;100.00;101911.13;5022913;28;20383;-72
2022/09/19 06:48:36;;;;;;;0.10;0.10;;;;;;;9.89;100.00;101905.47;5024617;28;20473;-76
2022/09/19 06:51:02;;;;;;;0.20;0.20;;;;;;;9.95;100.00;101904.25;5031607;28;20380;-76
2022/09/19 06:53:28;;;;;;;0.13;0.13;;;;;;;10.12;100.00;101920.25;5024108;28;20066;-76
2022/09/19 06:55:55;;;;;;;0.10;0.10;;;;;;;10.26;100.00;101918.53;5007121;28;20029;-76
2022/09/19 06:58:20;;;;;;;0.10;0.10;;;;;;;10.25;100.00;101903.41;5005705;28;20406;-76
2022/09/19 07:00:45;;;;;;;0.10;0.10;;;;;;;10.39;100.00;101916.91;5023133;28;20536;-76
2022/09/19 07:03:14;;;;;;;0.10;0.10;;;;;;;10.44;100.00;101913.94;5014167;28;20037;-76
2022/09/19 07:05:42;;;;;;;0.10;0.10;;;;;;;10.66;100.00;101926.94;5030436;28;20021;-76
2022/09/19 07:08:08;;;;;;;0.10;0.10;;;;;;;10.79;100.00;101933.28;5022815;28;20040;-76
2022/09/19 07:10:35;;;;;;;0.10;0.10;;;;;;;10.86;100.00;101927.53;5024129;28;20033;-75
2022/09/19 07:13:01;;;;;;;0.10;0.10;;;;;;;11.06;100.00;101939.72;5022792;28;20035;-76
2022/09/19 07:15:27;;;;;;;0.20;0.20;;;;;;;11.26;100.00;101943.84;5018992;28;20395;-76
2022/09/19 07:17:54;;;;;;;0.10;0.10;;;;;;;11.50;100.00;101946.81;5023016;28;20109;-77
2022/09/19 07:20:19;;;;;;;0.20;0.20;;;;;;;11.76;100.00;101938.00;5027385;28;20067;-77
2022/09/19 07:22:45;;;;;;;0.10;0.10;;;;;;;12.05;100.00;101940.66;5022057;28;20478;-77
2022/09/19 07:25:10;;;;;;;0.10;0.10;;;;;;;12.27;100.00;101945.44;5021269;28;20029;-77
2022/09/19 07:27:36;;;;;;;0.10;0.10;;;;;;;12.37;99.72;101948.38;5024121;28;20029;-78
2022/09/19 07:30:03;;;;;;;0.20;0.20;;;;;;;12.45;98.24;101932.56;5023529;28;20049;-75
2022/09/19 07:32:29;;;;;;;0.20;0.20;;;;;;;12.23;98.36;101892.75;5023524;28;20180;-75
2022/09/19 07:34:54;;;;;;;0.00;0.00;;;;;;;12.59;97.05;101943.22;5008905;28;20046;-73
2022/09/19 07:37:19;;;;;;;0.10;0.10;;;;;;;12.77;97.07;101950.16;5022965;28;20057;-76
2022/09/19 07:39:45;;;;;;;0.10;0.10;;;;;;;12.74;96.78;101938.59;5021902;28;20116;-76
2022/09/19 07:42:10;;;;;;;0.10;0.10;;;;;;;13.04;95.64;101934.72;5019286;28;20061;-74
2022/09/19 07:44:35;;;;;;;0.10;0.10;;;;;;;13.22;94.15;101936.22;5018183;28;20033;-76
2022/09/19 07:49:44;;;;;;;0.10;0.10;;;;;;;13.48;93.72;101939.78;5023288;28;20091;-75
2022/09/19 07:52:10;;;;;;;0.10;0.10;;;;;;;13.68;93.22;101950.94;5019338;28;20232;-74
2022/09/19 07:54:35;;;;;;;0.10;0.10;;;;;;;13.97;93.70;101958.72;5020930;28;20025;-74
2022/09/19 07:57:00;;;;;;;0.05;0.05;;;;;;;14.04;92.15;101957.28;5011718;28;20093;-75
2022/09/19 07:59:25;;;;;;;0.10;0.10;;;;;;;14.02;89.86;101957.41;5021168;28;20464;-74
2022/09/19 08:01:51;;;;;;;0.00;0.00;;;;;;;14.24;91.40;101962.06;5015828;28;20079;-73
2022/09/19 08:04:16;;;;;;;0.10;0.10;;;;;;;14.29;89.70;101972.50;5021015;28;20057;-73
2022/09/19 08:06:42;;;;;;;0.10;0.10;;;;;;;14.27;89.90;101955.56;5021682;28;20033;-73
2022/09/19 08:09:09;;;;;;;0.10;0.10;;;;;;;14.16;88.36;101956.38;5021760;28;20349;-75
2022/09/19 08:11:35;;;;;;;0.05;0.05;;;;;;;14.25;89.34;101976.41;5024106;28;20116;-73
2022/09/19 08:14:01;;;;;;;0.10;0.10;;;;;;;14.15;89.79;101975.41;5016596;28;20799;-75
2022/09/19 08:16:26;;;;;;;0.10;0.10;;;;;;;14.15;89.85;101975.41;5018952;28;20030;-75
2022/09/19 08:18:51;;;;;;;0.10;0.10;;;;;;;14.23;89.04;101978.38;5025171;28;20167;-74
2022/09/19 08:21:18;;;;;;;0.10;0.10;;;;;;;14.25;89.11;101979.13;5022525;28;20033;-75
2022/09/19 08:23:43;;;;;;;0.10;0.10;;;;;;;14.24;89.38;101974.69;5015395;28;20029;-75
2022/09/19 08:26:09;;;;;;;0.00;0.00;;;;;;;14.34;89.81;101989.22;5021314;28;20060;-74
2022/09/19 08:28:35;;;;;;;0.10;0.10;;;;;;;14.63;87.84;101987.97;5025575;28;20076;-76
2022/09/19 08:31:00;;;;;;;0.10;0.10;;;;;;;14.96;87.89;101994.47;5026364;28;20037;-74
2022/09/19 08:33:26;;;;;;;0.10;0.10;;;;;;;14.98;85.38;101981.72;5020231;28;20038;-75
2022/09/19 08:35:54;;;;;;;0.10;0.10;;;;;;;15.14;83.06;101973.25;5018610;28;20049;-75
2022/09/19 08:38:19;;;;;;;0.08;0.08;;;;;;;15.38;83.30;102000.16;5019234;28;20037;-74
2022/09/19 08:40:48;;;;;;;0.10;0.10;;;;;;;15.67;81.78;101996.13;5023385;28;20080;-75
2022/09/19 08:43:35;;;;;;;0.10;0.10;;;;;;;15.80;81.86;101998.69;5017739;28;20036;-75
2022/09/19 08:46:15;;;;;;;0.08;0.08;;;;;;;15.50;77.20;101994.78;5019837;28;20033;-77
2022/09/19 08:48:55;;;;;;;0.00;0.00;;;;;;;15.37;78.06;101992.19;5020142;28;20029;-76
2022/09/19 08:51:32;;;;;;;0.10;0.10;;;;;;;15.35;80.03;102005.84;5016583;28;20108;-77
2022/09/19 08:54:11;;;;;;;0.10;0.10;;;;;;;15.19;80.44;102013.44;5012163;28;20529;-77
2022/09/19 08:56:38;;;;;;;0.10;0.10;;;;;;;15.30;80.25;101989.97;5020518;28;20103;-76
2022/09/19 08:59:09;;;;;;;0.00;0.00;;;;;;;15.25;80.14;101997.59;5020353;28;20646;-76
2022/09/19 09:01:36;;;;;;;0.00;0.00;;;;;;;15.26;79.92;102018.25;5010164;28;20087;-77
2022/09/19 09:04:11;;;;;;;0.10;0.10;;;;;;;15.00;81.63;101985.16;5016998;28;20041;-77
2022/09/19 09:06:52;;;;;;;0.10;0.10;;;;;;;15.52;81.83;102006.34;5024433;28;20039;-79
2022/09/19 09:10:09;;;;;;;0.08;0.08;;;;;;;15.54;82.12;102010.63;5025246;28;20029;-73
2022/09/19 09:12:44;;;;;;;0.10;0.10;;;;;;;15.64;80.31;101999.06;4991822;28;20041;-74
2022/09/19 09:15:25;;;;;;;0.10;0.10;;;;;;;15.68;78.91;102003.25;5042402;28;20105;-79
2022/09/19 09:18:21;;;;;;;0.10;0.10;;;;;;;15.79;79.95;102005.09;5023881;28;20390;-78
2022/09/19 09:20:52;;;;;;;0.08;0.08;;;;;;;15.74;80.43;101971.13;5023008;28;20112;-75
2022/09/19 09:23:21;;;;;;;0.03;0.03;;;;;;;15.77;78.11;101988.94;5023634;28;20120;-77
2022/09/19 09:25:49;;;;;;;0.00;0.00;;;;;;;16.02;78.27;102003.22;5021000;28;20039;-78
2022/09/19 09:28:33;;;;;;;0.10;0.10;;;;;;;16.18;77.92;102006.38;5025682;28;20049;-80
2022/09/19 09:31:07;;;;;;;0.00;0.00;;;;;;;16.33;78.17;102004.22;5023096;28;20061;-76
2022/09/19 09:33:37;;;;;;;0.10;0.10;;;;;;;16.39;75.57;101996.59;5018984;28;20556;-73
2022/09/19 09:36:13;;;;;;;0.00;0.00;;;;;;;16.53;75.13;101996.25;5019595;28;20471;-70
2022/09/19 09:38:52;;;;;;;0.05;0.05;;;;;;;16.56;73.33;101998.72;5025113;28;20393;-76
2022/09/19 09:44:13;;;;;;;0.00;0.00;;;;;;;16.81;72.75;101995.75;5021530;28;20036;-75
2022/09/19 09:46:50;;;;;;;0.00;0.00;;;;;;;16.88;71.30;101999.63;5020105;28;20600;-73
2022/09/19 09:49:18;;;;;;;0.10;0.10;;;;;;;17.12;71.12;101998.53;5022179;28;20036;-77
2022/09/19 09:52:07;;;;;;;0.00;0.00;;;;;;;16.80;69.15;101981.31;5019222;28;20064;-77
2022/09/19 09:57:53;;;;;;;0.00;0.00;;;;;;;17.31;71.73;102008.63;5023290;28;20084;-72
2022/09/19 10:03:39;;;;;;;0.10;0.10;;;;;;;18.17;69.01;101997.31;5020897;28;20032;-78
2022/09/19 10:06:29;;;;;;;0.00;0.00;;;;;;;18.20;69.03;102018.78;5026847;28;20033;-74
2022/09/19 10:09:14;;;;;;;0.00;0.00;;;;;;;17.73;69.17;102016.66;5028598;28;20037;-76
2022/09/19 10:11:45;;;;;;;0.00;0.00;;;;;;;16.83;72.71;102035.31;5021422;28;20029;-74
2022/09/19 10:14:19;;;;;;;0.00;0.00;;;;;;;16.08;75.70;102032.50;5027045;28;20025;-75
2022/09/19 10:16:47;;;;;;;0.00;0.00;;;;;;;15.61;77.16;102032.66;5021505;28;20026;-76
2022/09/19 10:19:41;;;;;;;0.00;0.00;;;;;;;14.91;81.61;102027.31;5026187;28;20021;-77
2022/09/19 10:22:15;;;;;;;0.00;0.00;;;;;;;14.22;85.55;102031.53;5023300;28;20535;-70
2022/09/19 10:24:51;;;;;;;0.00;0.00;;;;;;;13.76;86.61;102019.59;5015039;28;20197;-74
2022/09/19 10:27:33;;;;;;;0.00;0.00;;;;;;;13.70;89.41;102017.31;5017552;28;20543;-75
2022/09/19 10:30:19;;;;;;;0.00;0.00;;;;;;;13.53;89.23;102042.81;5026157;28;20075;-75
2022/09/19 10:32:46;;;;;;;0.00;0.00;;;;;;;13.69;89.80;102034.47;5024677;28;20130;-75
2022/09/19 10:35:27;;;;;;;0.00;0.00;;;;;;;13.53;91.05;102064.41;5021291;28;20112;-74
2022/09/19 10:38:10;;;;;;;0.00;0.00;;;;;;;13.49;91.28;102047.59;5023655;28;20033;-74
2022/09/19 10:40:36;;;;;;;0.00;0.00;;;;;;;13.56;91.55;102048.00;5017724;28;20068;-74
2022/09/19 10:43:01;;;;;;;0.10;0.10;;;;;;;13.40;93.20;102039.25;5020304;28;20026;-76
2022/09/19 10:45:32;;;;;;;0.00;0.00;;;;;;;13.18;92.72;102011.94;5018290;28;20018;-77
2022/09/19 10:48:10;;;;;;;0.05;0.05;;;;;;;13.56;94.14;102014.78;5020316;28;20104;-76
2022/09/19 10:50:42;;;;;;;0.00;0.00;;;;;;;14.03;92.34;102023.94;5018728;28;20063;-77
2022/09/19 10:53:16;;;;;;;0.10;0.10;;;;;;;14.45;89.53;102039.75;5025624;28;20033;-75
2022/09/19 10:55:42;;;;;;;0.10;0.10;;;;;;;14.30;89.37;102047.16;5019557;28;20039;-72
2022/09/19 10:58:16;;;;;;;0.00;0.00;;;;;;;14.21;89.32;102045.13;5014908;28;20025;-76
2022/09/19 11:00:53;;;;;;;0.00;0.00;;;;;;;14.15;89.71;102042.91;5019258;28;20383;-76
2022/09/19 11:03:25;;;;;;;0.00;0.00;;;;;;;13.98;91.31;102014.47;5017805;28;20057;-75
2022/09/19 11:06:02;;;;;;;0.00;0.00;;;;;;;14.03;90.10;102012.28;5022505;28;20103;-78
2022/09/19 11:08:28;;;;;;;0.00;0.00;;;;;;;14.15;90.06;102018.63;5030108;28;20071;-77
2022/09/19 11:10:53;;;;;;;0.03;0.03;;;;;;;14.24;86.97;102017.91;5026510;28;20025;-75
2022/09/19 11:13:22;;;;;;;0.10;0.10;;;;;;;14.76;86.85;102029.34;5025661;28;20392;-74
2022/09/19 11:15:58;;;;;;;0.10;0.10;;;;;;;15.17;84.69;102042.47;5026590;28;20079;-79
2022/09/19 11:18:38;;;;;;;0.10;0.10;;;;;;;15.87;80.99;102037.84;5008189;28;20057;-77
2022/09/19 11:21:35;;;;;;;0.10;0.10;;;;;;;16.64;77.95;102034.16;5020621;28;20037;-78
2022/09/19 11:24:22;;;;;;;0.10;0.10;;;;;;;17.57;75.18;102033.47;5015254;28;20049;-76
2022/09/19 11:27:12;;;;;;;0.10;0.10;;;;;;;18.54;70.15;102028.41;5036273;28;20037;-79
2022/09/19 11:30:14;;;;;;;0.10;0.10;;;;;;;19.53;64.96;102027.22;5017282;28;20030;-75
2022/09/19 11:32:48;;;;;;;0.00;0.00;;;;;;;19.23;63.91;102033.75;4961470;28;20518;-80
2022/09/19 11:35:27;;;;;;;0.00;0.00;;;;;;;18.34;64.82;102038.41;5016411;28;20526;-75
2022/09/19 11:38:09;;;;;;;0.00;0.00;;;;;;;18.11;69.00;102022.38;5005232;28;20033;-77
2022/09/19 11:41:06;;;;;;;0.00;0.00;;;;;;;17.92;71.80;102036.72;5021115;28;20079;-79
2022/09/19 11:43:38;;;;;;;0.00;0.00;;;;;;;17.37;72.66;102044.22;5016666;28;20021;-75
2022/09/19 11:46:16;;;;;;;0.00;0.00;;;;;;;17.28;73.99;102023.34;5016471;28;20030;-75
2022/09/19 11:48:58;;;;;;;0.10;0.10;;;;;;;17.90;74.08;102038.72;5014675;28;20301;-77
2022/09/19 11:51:28;;;;;;;0.00;0.00;;;;;;;18.32;72.73;102043.13;5015794;28;20383;-78
2022/09/19 11:54:18;;;;;;;0.00;0.00;;;;;;;17.96;68.04;102043.63;5022040;28;20037;-77
2022/09/19 11:57:04;;;;;;;0.00;0.00;;;;;;;17.67;67.23;102047.94;5009101;28;20029;-77